Time;durP1;ratioP1;P1;durP2;ratioP2;P2;SDS_P1;SDS_P2;PMS_P1;PMS_P2;Temp;Humidity;BMP_temperature;BMP_pressure;BME280_temperature;BME280_humidity;BME280_pressure;Samples;Min_cycle;Max_cycle;Signal;HPM_P1;HPM_P2
2023/10/19 00:02:08;;;;;;;38.72;35.03;;;;;;;10.61;98.65;96398.78;5101825;28;20225;-81
2023/10/19 00:04:36;;;;;;;42.53;38.13;;;;;;;10.57;98.91;96397.63;5098044;28;20201;-80
2023/10/19 00:07:04;;;;;;;42.40;38.00;;;;;;;10.55;99.03;96399.75;5099394;28;20210;-80
2023/10/19 00:09:37;;;;;;;40.90;36.63;;;;;;;10.69;98.13;96392.97;5101289;28;20443;-80
2023/10/19 00:12:05;;;;;;;39.80;35.80;;;;;;;10.78;97.94;96390.69;5101127;28;20218;-80
2023/10/19 00:14:32;;;;;;;39.88;35.83;;;;;;;10.75;98.25;96391.97;5099493;28;20210;-80
2023/10/19 00:17:05;;;;;;;41.92;37.63;;;;;;;10.59;98.69;96381.16;5100501;28;20196;-80
2023/10/19 00:19:38;;;;;;;40.00;36.00;;;;;;;10.56;99.01;96371.63;5094684;28;20253;-80
2023/10/19 00:22:10;;;;;;;42.88;38.75;;;;;;;10.73;98.42;96375.16;5095539;28;20254;-80
2023/10/19 00:24:37;;;;;;;42.08;37.47;;;;;;;10.61;98.87;96371.72;5094630;28;20736;-80
2023/10/19 00:27:15;;;;;;;43.67;39.13;;;;;;;10.52;98.80;96365.06;5097300;28;20282;-80
2023/10/19 00:29:47;;;;;;;40.83;36.53;;;;;;;10.48;99.62;96374.72;5110956;28;20480;-80
2023/10/19 00:32:14;;;;;;;37.95;34.05;;;;;;;10.61;99.50;96374.44;5096946;28;20754;-80
2023/10/19 00:34:42;;;;;;;40.25;36.35;;;;;;;10.61;99.59;96369.03;5084173;28;20203;-80
2023/10/19 00:37:10;;;;;;;40.17;36.08;;;;;;;10.78;99.13;96369.84;5097963;28;20228;-80
2023/10/19 00:39:43;;;;;;;40.47;36.35;;;;;;;10.81;98.81;96381.25;5103126;28;20217;-80
2023/10/19 00:42:11;;;;;;;44.65;38.30;;;;;;;10.74;98.79;96374.09;5105893;28;20966;-80
2023/10/19 00:44:42;;;;;;;37.30;33.70;;;;;;;10.77;99.02;96367.38;5099085;28;20265;-80
2023/10/19 00:47:12;;;;;;;36.70;33.13;;;;;;;10.73;99.45;96369.75;5098577;28;20696;-79
2023/10/19 00:49:40;;;;;;;42.00;37.78;;;;;;;10.81;98.97;96363.13;5100971;28;20214;-80
2023/10/19 00:52:11;;;;;;;41.75;37.00;;;;;;;10.78;99.26;96350.09;5099507;28;20766;-80
2023/10/19 00:54:47;;;;;;;41.72;37.42;;;;;;;10.58;100.00;96342.47;5096340;28;20198;-79
2023/10/19 00:57:14;;;;;;;43.90;38.80;;;;;;;10.35;100.00;96329.06;5097390;28;20206;-79
2023/10/19 00:59:47;;;;;;;37.85;34.05;;;;;;;10.60;100.00;96312.47;5102383;28;20202;-79
2023/10/19 01:02:17;;;;;;;38.72;34.97;;;;;;;10.60;100.00;96324.09;5098557;28;20238;-79
2023/10/19 01:04:46;;;;;;;39.67;35.53;;;;;;;10.70;100.00;96310.75;5094481;28;20208;-80
2023/10/19 01:07:15;;;;;;;39.40;35.55;;;;;;;10.82;100.00;96309.81;5103945;28;20198;-80
2023/10/19 01:09:45;;;;;;;40.92;36.67;;;;;;;10.82;100.00;96309.81;5106203;28;20199;-79
2023/10/19 01:12:25;;;;;;;43.03;38.40;;;;;;;10.89;100.00;96315.91;5082163;28;21123;-79
2023/10/19 01:15:07;;;;;;;39.30;35.08;;;;;;;10.91;100.00;96313.78;5096207;28;20211;-79
2023/10/19 01:17:38;;;;;;;40.35;35.95;;;;;;;10.98;100.00;96314.44;5093693;28;20318;-80
2023/10/19 01:20:17;;;;;;;40.28;35.70;;;;;;;10.90;100.00;96312.13;5102981;28;20197;-80
2023/10/19 01:22:53;;;;;;;39.45;35.45;;;;;;;11.03;100.00;96304.50;5101423;28;20207;-80
2023/10/19 01:25:34;;;;;;;45.72;40.50;;;;;;;11.01;100.00;96311.22;5095438;28;20201;-79
2023/10/19 01:28:06;;;;;;;40.45;36.17;;;;;;;11.01;100.00;96303.94;5097079;28;20191;-80
2023/10/19 01:30:34;;;;;;;46.80;39.90;;;;;;;10.94;100.00;96295.16;5099758;28;20200;-80
2023/10/19 01:33:02;;;;;;;39.75;35.47;;;;;;;11.08;100.00;96290.19;5103363;28;20223;-80
2023/10/19 01:36:10;;;;;;;35.58;32.30;;;;;;;11.09;100.00;96289.13;5094718;28;20569;-80
2023/10/19 01:38:17;;;;;;;40.85;36.53;;;;;;;11.14;100.00;96291.91;5103204;28;20203;-80
2023/10/19 01:40:48;;;;;;;47.75;38.00;;;;;;;11.15;100.00;96282.72;5099891;28;20309;-79
2023/10/19 01:43:20;;;;;;;37.95;33.97;;;;;;;11.15;100.00;96282.72;5092944;28;20274;-80
2023/10/19 01:45:48;;;;;;;37.55;33.72;;;;;;;11.31;100.00;96281.88;5101113;28;20217;-80
2023/10/19 01:48:15;;;;;;;41.60;37.20;;;;;;;11.32;99.53;96285.41;5093689;28;20428;-80
2023/10/19 01:50:42;;;;;;;45.42;39.60;;;;;;;11.29;100.00;96285.91;5101676;28;20229;-80
2023/10/19 01:53:15;;;;;;;32.95;29.80;;;;;;;11.26;100.00;96284.53;5100573;28;20276;-79
2023/10/19 01:55:47;;;;;;;39.75;35.65;;;;;;;11.34;100.00;96281.38;5094246;28;20207;-80
2023/10/19 01:58:14;;;;;;;40.75;36.60;;;;;;;11.33;100.00;96282.47;5105682;28;20229;-79
2023/10/19 02:00:43;;;;;;;39.67;35.60;;;;;;;11.48;100.00;96270.16;5098574;28;20227;-79
2023/10/19 02:03:16;;;;;;;37.15;33.47;;;;;;;11.61;99.67;96267.09;5088374;28;20657;-80
2023/10/19 02:05:43;;;;;;;33.65;30.17;;;;;;;11.49;99.82;96283.47;5099375;28;20723;-79
2023/10/19 02:08:09;;;;;;;37.30;33.55;;;;;;;11.48;100.00;96264.75;5092897;28;20217;-80
2023/10/19 02:10:37;;;;;;;37.93;33.90;;;;;;;11.55;100.00;96281.66;5092994;28;20222;-79
2023/10/19 02:13:06;;;;;;;35.00;31.38;;;;;;;11.61;100.00;96256.25;5097453;28;20710;-79
2023/10/19 02:15:35;;;;;;;44.67;38.40;;;;;;;11.50;100.00;96262.63;5094239;28;20283;-79
2023/10/19 02:18:02;;;;;;;40.78;36.47;;;;;;;11.67;99.80;96252.53;5101996;28;20205;-80
2023/10/19 02:20:29;;;;;;;40.40;36.13;;;;;;;11.69;99.28;96261.25;5097604;28;20679;-80
2023/10/19 02:22:57;;;;;;;34.63;31.23;;;;;;;11.79;99.10;96253.25;5095893;28;20202;-80
2023/10/19 02:25:28;;;;;;;34.85;31.42;;;;;;;11.96;98.53;96253.16;5094616;28;20240;-81
2023/10/19 02:27:54;;;;;;;30.50;27.63;;;;;;;11.95;97.77;96244.22;5099696;28;20199;-81
2023/10/19 02:30:24;;;;;;;30.83;28.03;;;;;;;11.98;97.87;96243.72;5100984;28;20215;-81
2023/10/19 02:32:50;;;;;;;34.53;30.98;;;;;;;11.89;98.59;96237.09;5096918;28;20609;-80
2023/10/19 02:35:18;;;;;;;39.63;35.50;;;;;;;11.88;98.59;96235.47;5104944;28;20547;-81
2023/10/19 02:37:44;;;;;;;41.90;36.00;;;;;;;11.91;98.61;96243.09;5101235;28;20191;-81
2023/10/19 02:40:19;;;;;;;36.30;32.57;;;;;;;11.90;98.60;96229.78;5097317;28;20198;-81
2023/10/19 02:42:47;;;;;;;33.63;30.25;;;;;;;11.99;98.41;96229.09;5091722;28;20203;-81
2023/10/19 02:45:16;;;;;;;37.53;33.58;;;;;;;11.90;98.56;96233.31;5096017;28;20419;-81
2023/10/19 02:47:44;;;;;;;32.30;29.45;;;;;;;11.99;98.40;96223.66;5095363;28;20204;-81
2023/10/19 02:50:13;;;;;;;34.10;30.85;;;;;;;12.06;98.20;96224.25;5097887;28;20202;-81
2023/10/19 02:52:42;;;;;;;35.83;32.38;;;;;;;11.93;98.49;96213.00;5101053;28;20208;-81
2023/10/19 02:55:10;;;;;;;40.53;36.33;;;;;;;11.96;98.66;96217.94;5097596;28;20201;-81
2023/10/19 02:57:37;;;;;;;46.13;37.90;;;;;;;11.92;98.59;96217.63;5089227;28;20196;-81
2023/10/19 03:00:10;;;;;;;41.35;35.63;;;;;;;11.94;98.99;96215.47;5099193;28;20223;-81
2023/10/19 03:02:36;;;;;;;40.58;36.13;;;;;;;11.62;99.87;96211.84;5096230;28;20234;-81
2023/10/19 03:05:12;;;;;;;44.60;38.67;;;;;;;11.54;100.00;96215.81;5093872;28;20196;-81
2023/10/19 03:07:39;;;;;;;42.67;38.10;;;;;;;11.48;100.00;96214.09;5093463;28;20196;-81
2023/10/19 03:10:07;;;;;;;45.05;38.35;;;;;;;11.47;100.00;96208.94;5095773;28;20851;-81
2023/10/19 03:12:35;;;;;;;42.55;37.90;;;;;;;11.59;100.00;96201.50;5095842;28;20639;-81
2023/10/19 03:15:02;;;;;;;37.60;33.70;;;;;;;11.57;100.00;96209.88;5096189;28;20209;-81
2023/10/19 03:17:30;;;;;;;49.97;41.23;;;;;;;11.53;100.00;96202.50;5094589;28;20232;-81
2023/10/19 03:19:56;;;;;;;53.20;41.20;;;;;;;11.44;100.00;96192.13;5095789;28;20504;-81
2023/10/19 03:22:25;;;;;;;43.83;39.33;;;;;;;11.39;100.00;96197.47;5094832;28;20329;-81
2023/10/19 03:24:59;;;;;;;52.30;41.17;;;;;;;11.39;100.00;96194.75;5093440;28;20257;-81
2023/10/19 03:27:26;;;;;;;42.75;36.92;;;;;;;11.45;100.00;96193.75;5092637;28;20202;-81
2023/10/19 03:29:53;;;;;;;43.45;38.75;;;;;;;11.36;100.00;96189.06;5101477;28;20241;-81
2023/10/19 03:32:25;;;;;;;42.47;37.45;;;;;;;11.32;100.00;96191.44;5100582;28;20284;-81
2023/10/19 03:34:55;;;;;;;44.28;37.53;;;;;;;11.39;100.00;96186.63;5095854;28;20195;-81
2023/10/19 03:37:25;;;;;;;40.42;36.17;;;;;;;11.55;100.00;96189.53;5096911;28;20195;-81
2023/10/19 03:39:52;;;;;;;58.53;41.55;;;;;;;11.64;100.00;96188.84;5094066;28;20207;-81
2023/10/19 03:42:21;;;;;;;36.60;33.10;;;;;;;11.75;99.98;96189.75;5101671;28;20238;-81
2023/10/19 03:44:53;;;;;;;47.70;39.92;;;;;;;11.80;99.91;96186.28;5095456;28;20222;-81
2023/10/19 03:47:20;;;;;;;31.35;28.55;;;;;;;11.79;99.57;96185.47;5097822;28;20199;-81
2023/10/19 03:49:47;;;;;;;48.15;40.33;;;;;;;11.77;99.60;96187.63;5101694;28;20614;-81
2023/10/19 03:52:26;;;;;;;41.85;37.40;;;;;;;11.66;100.00;96186.69;5105421;28;20521;-81
2023/10/19 03:54:55;;;;;;;39.95;35.80;;;;;;;11.55;100.00;96181.41;5095868;28;20252;-81
2023/10/19 03:57:22;;;;;;;34.47;31.20;;;;;;;11.58;100.00;96184.44;5106009;28;20195;-81
2023/10/19 03:59:52;;;;;;;44.25;37.55;;;;;;;11.56;100.00;96180.34;5098655;28;20210;-80
2023/10/19 04:02:20;;;;;;;41.63;37.22;;;;;;;11.45;100.00;96171.25;5116067;28;20250;-80
2023/10/19 04:04:48;;;;;;;49.78;40.03;;;;;;;11.49;100.00;96171.56;5097773;28;20194;-80
2023/10/19 04:07:20;;;;;;;48.97;38.72;;;;;;;11.41;100.00;96165.53;5104523;28;20202;-80
2023/10/19 04:10:09;;;;;;;53.22;40.83;;;;;;;11.45;100.00;96161.25;5094382;28;20290;-81
2023/10/19 04:12:38;;;;;;;57.97;41.38;;;;;;;11.52;100.00;96143.97;5103015;28;20203;-80
2023/10/19 04:15:12;;;;;;;46.05;36.97;;;;;;;11.38;100.00;96141.66;5102682;28;20223;-80
2023/10/19 04:17:40;;;;;;;33.92;30.58;;;;;;;11.57;100.00;96149.47;5093450;28;20205;-80
2023/10/19 04:20:26;;;;;;;41.47;36.28;;;;;;;11.51;100.00;96139.63;5102586;28;20198;-80
2023/10/19 04:22:54;;;;;;;35.42;31.67;;;;;;;11.30;100.00;96142.13;5095009;28;20226;-80
2023/10/19 04:25:25;;;;;;;50.97;37.97;;;;;;;11.27;100.00;96145.34;5096787;28;20207;-82
2023/10/19 04:27:56;;;;;;;37.75;33.88;;;;;;;11.49;100.00;96130.94;5098478;28;20195;-82
2023/10/19 04:30:24;;;;;;;49.80;38.58;;;;;;;11.30;100.00;96117.75;5087953;28;20302;-83
2023/10/19 04:32:51;;;;;;;42.17;35.00;;;;;;;11.48;99.90;96123.88;5093190;28;20210;-81
2023/10/19 04:35:22;;;;;;;37.42;33.33;;;;;;;11.48;100.00;96123.88;5099147;28;20567;-83
2023/10/19 04:37:50;;;;;;;35.75;32.20;;;;;;;11.25;100.00;96125.81;5102154;28;20205;-80
2023/10/19 04:40:17;;;;;;;36.72;32.78;;;;;;;11.35;100.00;96122.41;5100709;28;20225;-81
2023/10/19 04:42:44;;;;;;;51.35;39.95;;;;;;;11.36;100.00;96122.16;5097144;28;20314;-81
2023/10/19 04:45:14;;;;;;;44.13;36.25;;;;;;;11.47;100.00;96119.53;5092674;28;21008;-82
2023/10/19 04:47:41;;;;;;;34.20;30.67;;;;;;;11.59;99.34;96120.22;5089491;28;20254;-81
2023/10/19 04:50:10;;;;;;;38.03;34.08;;;;;;;11.42;100.00;96123.81;5102098;28;20317;-82
2023/10/19 04:52:37;;;;;;;43.97;36.60;;;;;;;11.36;100.00;96122.16;5098582;28;20275;-82
2023/10/19 04:55:05;;;;;;;36.10;31.77;;;;;;;11.40;100.00;96127.88;5097555;28;20205;-83
2023/10/19 04:57:32;;;;;;;42.80;35.63;;;;;;;11.41;100.00;96119.47;5086559;28;20213;-83
2023/10/19 04:59:59;;;;;;;39.72;33.60;;;;;;;11.49;100.00;96122.81;5090970;28;20746;-83
2023/10/19 05:02:28;;;;;;;29.70;26.88;;;;;;;11.57;100.00;96116.94;5095554;28;20218;-81
2023/10/19 05:04:55;;;;;;;37.10;33.08;;;;;;;11.72;99.87;96119.78;5088876;28;20282;-83
2023/10/19 05:07:22;;;;;;;34.05;30.38;;;;;;;11.65;99.82;96113.78;5084061;28;20192;-86
2023/10/19 05:09:48;;;;;;;30.52;27.42;;;;;;;11.69;99.47;96104.06;5092390;28;20722;-85
2023/10/19 05:12:16;;;;;;;34.40;30.98;;;;;;;11.72;99.20;96108.94;5090956;28;20229;-83
2023/10/19 05:14:45;;;;;;;34.88;31.08;;;;;;;11.76;99.04;96113.63;5077117;28;20196;-83
2023/10/19 05:17:13;;;;;;;36.75;30.20;;;;;;;11.65;99.08;96114.59;5091553;28;20220;-81
2023/10/19 05:19:42;;;;;;;39.00;31.35;;;;;;;11.65;99.07;96116.50;5094003;28;20219;-84
2023/10/19 05:22:10;;;;;;;41.25;34.10;;;;;;;11.52;99.89;96117.72;5090739;28;20230;-83
2023/10/19 05:24:37;;;;;;;27.48;24.88;;;;;;;11.77;98.97;96114.44;5087382;28;20191;-81
2023/10/19 05:27:05;;;;;;;28.23;25.48;;;;;;;11.75;99.06;96130.94;5090011;28;20196;-85
2023/10/19 05:29:32;;;;;;;28.55;25.73;;;;;;;11.71;98.82;96129.00;5093736;28;20223;-79
2023/10/19 05:32:00;;;;;;;34.03;30.42;;;;;;;11.61;99.57;96129.72;5093815;28;20223;-83
2023/10/19 05:34:29;;;;;;;32.10;28.73;;;;;;;11.64;99.58;96131.94;5093436;28;20330;-80
2023/10/19 05:36:58;;;;;;;31.52;28.27;;;;;;;11.69;99.49;96128.47;5095241;28;20210;-83
2023/10/19 05:39:27;;;;;;;31.17;28.27;;;;;;;11.69;99.36;96125.75;5093989;28;20245;-90
2023/10/19 05:41:54;;;;;;;29.02;26.02;;;;;;;11.56;100.00;96135.09;5096358;28;20219;-85
2023/10/19 05:44:24;;;;;;;26.55;23.92;;;;;;;11.76;99.09;96134.47;5099823;28;20209;-84
2023/10/19 05:46:52;;;;;;;26.38;23.98;;;;;;;11.74;99.07;96134.72;5091090;28;20218;-84
2023/10/19 05:49:19;;;;;;;31.55;27.38;;;;;;;11.61;99.54;96126.19;5088674;28;20290;-84
2023/10/19 05:51:46;;;;;;;37.08;32.15;;;;;;;11.55;99.55;96124.50;5094391;28;20207;-85
2023/10/19 05:54:14;;;;;;;29.73;26.75;;;;;;;11.70;99.40;96132.78;5079845;28;20215;-85
2023/10/19 05:56:41;;;;;;;36.35;29.98;;;;;;;11.79;98.87;96134.00;5090141;28;20295;-85
2023/10/19 05:59:09;;;;;;;32.80;29.30;;;;;;;11.50;99.55;96116.31;5085595;28;20206;-84
2023/10/19 06:01:36;;;;;;;32.65;29.10;;;;;;;11.68;99.40;96140.38;5089960;28;20226;-84
2023/10/19 06:04:04;;;;;;;30.08;26.90;;;;;;;11.74;99.93;96128.47;5093913;28;20202;-84
2023/10/19 06:06:30;;;;;;;32.63;29.15;;;;;;;11.77;100.00;96133.41;5096840;28;20218;-85
2023/10/19 06:08:57;;;;;;;35.88;31.15;;;;;;;11.88;99.47;96139.75;5091027;28;20290;-84
2023/10/19 06:11:32;;;;;;;26.60;24.10;;;;;;;11.90;99.92;96127.59;5082715;28;20223;-84
2023/10/19 06:14:00;;;;;;;29.52;26.50;;;;;;;12.04;99.15;96136.09;5082563;28;20253;-84
2023/10/19 06:16:27;;;;;;;25.80;23.50;;;;;;;12.14;98.27;96140.78;5084803;28;20662;-83
2023/10/19 06:18:56;;;;;;;22.98;20.88;;;;;;;12.29;97.78;96151.78;5087024;28;20196;-83
2023/10/19 06:21:23;;;;;;;26.85;23.98;;;;;;;12.36;97.18;96145.03;5087264;28;20871;-84
2023/10/19 06:23:50;;;;;;;26.27;23.67;;;;;;;12.27;98.31;96138.47;5081280;28;20794;-84
2023/10/19 06:26:17;;;;;;;26.45;23.58;;;;;;;12.44;97.51;96133.72;5081318;28;20280;-83
2023/10/19 06:28:45;;;;;;;24.00;21.70;;;;;;;12.53;97.39;96139.47;5087398;28;20278;-84
2023/10/19 06:31:14;;;;;;;19.20;17.42;;;;;;;12.56;96.58;96146.28;5100710;28;20728;-85
2023/10/19 06:33:42;;;;;;;23.65;21.42;;;;;;;12.61;97.01;96149.03;5098819;28;21131;-85
2023/10/19 06:36:09;;;;;;;21.48;19.67;;;;;;;12.63;97.21;96147.69;5090356;28;20532;-85
2023/10/19 06:38:35;;;;;;;23.95;21.42;;;;;;;12.69;97.38;96141.19;5093307;28;20201;-85
2023/10/19 06:41:11;;;;;;;22.80;20.58;;;;;;;12.68;96.94;96153.13;5081675;28;20709;-84
2023/10/19 06:43:38;;;;;;;23.15;21.08;;;;;;;12.59;97.25;96146.56;5093543;28;20254;-84
2023/10/19 06:46:07;;;;;;;18.17;16.65;;;;;;;12.80;96.38;96142.06;5089042;28;20223;-84
2023/10/19 06:48:33;;;;;;;23.25;21.10;;;;;;;12.72;96.71;96148.81;5092756;28;20298;-83
2023/10/19 06:51:01;;;;;;;24.17;21.95;;;;;;;12.63;97.45;96147.69;5086390;28;20689;-83
2023/10/19 06:53:28;;;;;;;23.83;21.38;;;;;;;12.67;97.09;96137.91;5088294;28;20761;-84
2023/10/19 06:55:55;;;;;;;20.48;18.52;;;;;;;12.61;97.58;96128.13;5093664;28;20202;-84
2023/10/19 06:58:26;;;;;;;19.00;17.33;;;;;;;12.58;97.60;96142.22;5095209;28;20196;-84
2023/10/19 07:00:59;;;;;;;19.70;17.75;;;;;;;12.75;97.28;96137.44;5095581;28;20499;-84
2023/10/19 07:03:29;;;;;;;21.27;19.10;;;;;;;12.70;97.81;96148.25;5093103;28;20235;-84
2023/10/19 07:05:56;;;;;;;20.05;18.30;;;;;;;12.83;97.31;96132.59;5089091;28;20191;-84
2023/10/19 07:08:23;;;;;;;18.83;17.17;;;;;;;12.87;97.43;96125.56;5088885;28;21136;-84
2023/10/19 07:10:50;;;;;;;19.97;18.07;;;;;;;12.73;97.70;96127.91;5084384;28;20465;-84
2023/10/19 07:13:17;;;;;;;19.23;17.63;;;;;;;12.76;98.03;96135.53;5089722;28;20971;-84
2023/10/19 07:15:46;;;;;;;19.20;17.43;;;;;;;12.74;97.70;96130.38;5088045;28;20263;-84
2023/10/19 07:18:13;;;;;;;20.40;17.90;;;;;;;12.77;97.94;96132.56;5092788;28;20933;-84
2023/10/19 07:20:42;;;;;;;20.90;19.00;;;;;;;12.72;97.39;96134.41;5094769;28;21062;-84
2023/10/19 07:23:18;;;;;;;17.20;15.70;;;;;;;12.98;96.60;96130.78;5091138;28;20604;-85
2023/10/19 07:25:45;;;;;;;17.80;16.30;;;;;;;13.06;96.06;96130.25;5096516;28;20459;-85
2023/10/19 07:28:13;;;;;;;20.13;18.33;;;;;;;12.99;96.34;96134.31;5077777;28;20815;-82
2023/10/19 07:30:41;;;;;;;17.65;16.15;;;;;;;13.05;96.26;96134.06;5087258;28;20564;-85
2023/10/19 07:33:09;;;;;;;18.30;16.50;;;;;;;13.08;96.13;96132.72;5084815;28;20242;-83
2023/10/19 07:35:37;;;;;;;19.38;17.67;;;;;;;12.94;96.90;96126.97;5084084;28;20450;-84
2023/10/19 07:38:07;;;;;;;19.70;17.97;;;;;;;13.07;96.66;96121.03;5085625;28;20925;-84
2023/10/19 07:40:34;;;;;;;21.02;19.20;;;;;;;13.05;96.41;96127.81;5088096;28;20524;-83
2023/10/19 07:43:01;;;;;;;17.87;16.27;;;;;;;13.09;96.05;96128.91;5085425;28;21171;-83
2023/10/19 07:45:31;;;;;;;18.90;17.40;;;;;;;13.12;96.55;96122.94;5094893;28;20542;-84
2023/10/19 07:48:05;;;;;;;20.73;19.00;;;;;;;13.16;96.64;96121.38;5090444;28;20191;-84
2023/10/19 07:50:32;;;;;;;21.63;19.73;;;;;;;13.35;95.55;96117.09;5090900;28;20215;-84
2023/10/19 07:52:59;;;;;;;17.40;16.00;;;;;;;13.54;94.57;96119.31;5091166;28;20458;-84
2023/10/19 07:55:28;;;;;;;18.40;17.00;;;;;;;13.92;93.71;96115.31;5090384;28;20233;-84
2023/10/19 07:57:55;;;;;;;19.10;17.60;;;;;;;14.02;93.65;96110.69;5090041;28;20453;-84
2023/10/19 08:00:24;;;;;;;16.03;14.63;;;;;;;13.92;93.73;96105.25;5093498;28;20477;-84
2023/10/19 08:02:51;;;;;;;18.43;16.80;;;;;;;13.70;93.92;96107.38;5101324;28;21005;-84
2023/10/19 08:05:21;;;;;;;18.47;16.97;;;;;;;13.77;94.24;96105.22;5090521;28;20942;-83
2023/10/19 08:07:48;;;;;;;16.57;15.23;;;;;;;13.95;93.11;96098.47;5079061;28;20471;-83
2023/10/19 08:10:17;;;;;;;15.60;14.20;;;;;;;14.27;91.69;96111.78;5086146;28;20569;-84
2023/10/19 08:12:47;;;;;;;14.57;13.10;;;;;;;13.99;93.12;96111.22;5079584;28;20474;-82
2023/10/19 08:15:15;;;;;;;13.30;12.00;;;;;;;14.42;92.02;96103.63;5088455;28;20468;-84
2023/10/19 08:17:43;;;;;;;13.03;11.93;;;;;;;14.81;90.03;96100.28;5090016;28;20455;-84
2023/10/19 08:20:15;;;;;;;12.10;11.00;;;;;;;14.98;88.21;96095.31;5098043;28;20464;-85
2023/10/19 08:22:42;;;;;;;11.17;10.27;;;;;;;15.00;88.42;96104.03;5089409;28;20486;-84
2023/10/19 08:25:12;;;;;;;11.93;11.03;;;;;;;15.56;86.19;96106.50;5094108;28;20672;-84
2023/10/19 08:27:41;;;;;;;11.20;10.00;;;;;;;15.89;83.60;96104.97;5092224;28;21321;-84
2023/10/19 08:30:10;;;;;;;12.10;11.00;;;;;;;16.41;82.14;96112.47;5097436;28;20553;-84
2023/10/19 08:32:37;;;;;;;11.17;10.27;;;;;;;16.98;79.44;96102.63;5087086;28;21147;-84
2023/10/19 08:35:05;;;;;;;9.37;8.60;;;;;;;17.00;77.20;96100.41;5085209;28;20481;-84
2023/10/19 08:37:33;;;;;;;9.30;8.60;;;;;;;16.97;76.55;96112.75;5092864;28;20986;-83
2023/10/19 08:40:01;;;;;;;8.90;8.00;;;;;;;17.19;76.64;96095.84;5083734;28;20489;-85
2023/10/19 08:42:30;;;;;;;8.30;7.60;;;;;;;17.69;73.83;96104.50;5089952;28;20460;-84
2023/10/19 08:44:59;;;;;;;8.07;7.47;;;;;;;17.84;72.44;96100.75;5093160;28;20809;-84
2023/10/19 08:47:27;;;;;;;8.20;7.60;;;;;;;17.86;72.29;96095.78;5088709;28;20944;-85
2023/10/19 08:49:54;;;;;;;8.40;7.60;;;;;;;17.68;73.65;96092.75;5087748;28;20502;-83
2023/10/19 08:52:22;;;;;;;7.30;6.70;;;;;;;17.92;73.68;96092.66;5089506;28;20461;-83
2023/10/19 08:54:49;;;;;;;8.33;7.00;;;;;;;17.89;73.73;96098.72;5091323;28;20472;-84
2023/10/19 08:57:16;;;;;;;7.10;6.50;;;;;;;18.36;72.15;96091.41;5087371;28;20461;-82
2023/10/19 08:59:43;;;;;;;6.37;5.87;;;;;;;18.60;70.43;96080.34;5096739;28;20445;-85
2023/10/19 09:02:11;;;;;;;6.20;5.67;;;;;;;18.55;69.43;96089.44;5082212;28;20485;-84
2023/10/19 09:04:43;;;;;;;6.07;5.57;;;;;;;18.71;69.00;96085.34;5095865;28;20576;-84
2023/10/19 09:07:11;;;;;;;6.53;5.93;;;;;;;18.63;69.31;96086.03;5082012;28;20502;-84
2023/10/19 09:09:40;;;;;;;7.10;6.40;;;;;;;17.96;73.11;96070.97;5090413;28;21036;-84
2023/10/19 09:12:07;;;;;;;6.00;5.40;;;;;;;18.84;69.96;96075.53;5093744;28;20449;-84
2023/10/19 09:14:41;;;;;;;5.87;5.47;;;;;;;19.64;67.66;96076.91;5094404;28;20539;-84
2023/10/19 09:17:09;;;;;;;6.20;5.10;;;;;;;19.22;67.32;96076.13;5092019;28;20590;-80
2023/10/19 09:19:40;;;;;;;5.50;5.00;;;;;;;19.44;66.75;96072.66;5093941;28;20461;-85
2023/10/19 09:22:16;;;;;;;5.97;5.47;;;;;;;19.44;65.39;96076.22;5094095;28;20452;-85
2023/10/19 09:24:44;;;;;;;5.60;5.10;;;;;;;19.81;65.40;96071.59;5089585;28;20933;-87
2023/10/19 09:27:12;;;;;;;6.23;5.63;;;;;;;19.78;65.36;96070.28;5080396;28;20464;-85
2023/10/19 09:29:40;;;;;;;5.90;5.37;;;;;;;19.68;67.06;96084.25;5086118;28;21189;-85
2023/10/19 09:32:08;;;;;;;5.60;5.00;;;;;;;19.33;66.44;96072.06;5093743;28;20963;-86
2023/10/19 09:34:36;;;;;;;6.33;5.60;;;;;;;19.21;69.09;96071.75;5099986;28;20452;-84
2023/10/19 09:37:05;;;;;;;5.97;5.47;;;;;;;19.50;68.08;96065.13;5097369;28;21426;-85
2023/10/19 09:39:35;;;;;;;5.77;5.30;;;;;;;19.67;66.41;96062.59;5094851;28;20944;-82
2023/10/19 09:42:06;;;;;;;5.13;4.73;;;;;;;19.31;68.65;96057.84;5084671;28;20525;-81
2023/10/19 09:44:41;;;;;;;5.60;5.10;;;;;;;18.72;68.96;96056.81;5095328;28;20526;-84
2023/10/19 09:47:12;;;;;;;6.30;5.73;;;;;;;18.85;69.63;96040.69;5094991;28;20470;-88
2023/10/19 09:49:40;;;;;;;5.93;5.37;;;;;;;18.82;69.82;96044.06;5082845;28;20484;-82
2023/10/19 09:52:08;;;;;;;6.40;5.90;;;;;;;18.86;70.92;96045.03;5084427;28;20453;-82
2023/10/19 09:54:47;;;;;;;5.53;5.10;;;;;;;18.91;70.66;96047.69;5090803;28;20456;-84
2023/10/19 09:57:19;;;;;;;5.80;5.20;;;;;;;19.05;70.49;96043.84;5094473;28;20465;-84
2023/10/19 09:59:48;;;;;;;5.90;5.40;;;;;;;19.00;70.92;96045.88;5099265;28;20550;-84
2023/10/19 10:02:17;;;;;;;6.47;5.67;;;;;;;19.16;70.90;96038.16;5096513;28;20530;-84
2023/10/19 10:04:45;;;;;;;5.70;5.20;;;;;;;19.04;69.98;96041.41;5088717;28;20855;-85
2023/10/19 10:07:12;;;;;;;6.37;5.87;;;;;;;18.46;70.95;96039.22;5091401;28;20627;-85
2023/10/19 10:09:43;;;;;;;5.47;4.83;;;;;;;18.69;72.45;96040.19;5092452;28;20520;-80
2023/10/19 10:12:21;;;;;;;6.10;5.60;;;;;;;18.86;71.87;96039.56;5096234;28;20470;-83
2023/10/19 10:14:59;;;;;;;6.27;5.77;;;;;;;18.78;71.95;96050.13;5088680;28;20590;-82
2023/10/19 10:17:27;;;;;;;5.00;4.20;;;;;;;18.73;70.97;96044.75;5096253;28;20461;-74
2023/10/19 10:20:05;;;;;;;6.03;5.53;;;;;;;18.70;71.72;96025.34;5078720;28;21015;-74
2023/10/19 10:22:35;;;;;;;5.83;5.33;;;;;;;18.58;73.16;96042.25;5088744;28;20460;-76
2023/10/19 10:25:04;;;;;;;5.90;5.40;;;;;;;18.60;73.12;96044.72;5087951;28;21257;-80
2023/10/19 10:27:32;;;;;;;5.30;4.90;;;;;;;18.39;73.98;96034.13;5092746;28;20453;-78
2023/10/19 10:30:05;;;;;;;5.57;5.10;;;;;;;18.23;74.36;96037.41;5091592;28;20873;-79
2023/10/19 10:32:52;;;;;;;6.77;4.90;;;;;;;18.40;74.93;96032.19;5082786;28;20458;-79
2023/10/19 10:35:55;;;;;;;5.70;5.20;;;;;;;18.24;75.78;96028.06;5085724;28;21055;-79
2023/10/19 10:38:22;;;;;;;5.10;4.70;;;;;;;18.50;74.96;96032.00;5033207;28;20529;-79
2023/10/19 10:40:51;;;;;;;5.13;4.60;;;;;;;18.27;74.29;96028.28;5086415;28;20473;-79
2023/10/19 10:43:19;;;;;;;4.63;4.23;;;;;;;18.39;73.29;96030.56;5094253;28;20711;-79
2023/10/19 10:45:46;;;;;;;4.57;4.17;;;;;;;18.48;72.69;96025.22;5099137;28;20461;-79
2023/10/19 10:48:13;;;;;;;4.10;3.80;;;;;;;18.71;71.10;96036.03;5099173;28;20536;-79
2023/10/19 10:50:41;;;;;;;4.40;4.00;;;;;;;18.71;71.91;96022.31;5092658;28;20472;-79
2023/10/19 10:53:08;;;;;;;4.50;4.10;;;;;;;18.66;70.99;96021.59;5091975;28;20553;-79
2023/10/19 10:55:35;;;;;;;4.30;3.90;;;;;;;18.80;70.89;96025.16;5094030;28;20456;-79
2023/10/19 10:58:04;;;;;;;4.10;3.70;;;;;;;18.71;70.19;96025.06;5091859;28;20444;-75
2023/10/19 11:00:34;;;;;;;4.03;3.73;;;;;;;18.87;70.26;96019.25;5096508;28;20509;-75
2023/10/19 11:03:03;;;;;;;4.33;3.93;;;;;;;18.51;70.54;96033.63;5100659;28;20445;-79
2023/10/19 11:05:31;;;;;;;5.70;4.20;;;;;;;18.37;71.36;96035.53;5110890;28;20449;-79
2023/10/19 11:08:06;;;;;;;4.47;3.90;;;;;;;18.17;71.96;96036.72;5096693;28;20480;-79
2023/10/19 11:10:34;;;;;;;4.40;4.00;;;;;;;18.16;72.63;96037.00;5087490;28;20469;-79
2023/10/19 11:13:03;;;;;;;4.57;4.17;;;;;;;18.19;72.86;96039.97;5091835;28;20472;-79
2023/10/19 11:15:30;;;;;;;6.07;4.80;;;;;;;18.04;73.60;96041.00;5092689;28;20467;-79
2023/10/19 11:17:57;;;;;;;5.27;4.70;;;;;;;18.04;74.43;96034.72;5086727;28;20861;-79
2023/10/19 11:20:27;;;;;;;4.77;4.43;;;;;;;18.03;74.60;96033.09;5089071;28;20481;-78
2023/10/19 11:22:55;;;;;;;6.30;5.10;;;;;;;18.13;76.04;96032.94;5090282;28;20457;-79
2023/10/19 11:25:24;;;;;;;5.40;4.90;;;;;;;18.00;76.57;96026.28;5098119;28;20488;-80
2023/10/19 11:27:52;;;;;;;5.23;4.70;;;;;;;17.50;77.97;96033.34;5097359;28;20467;-79
2023/10/19 11:30:28;;;;;;;6.03;5.43;;;;;;;17.35;79.08;96028.91;5090490;28;20556;-78